Time;durP1;ratioP1;P1;durP2;ratioP2;P2;SDS_P1;SDS_P2;PMS_P1;PMS_P2;Temp;Humidity;BMP_temperature;BMP_pressure;BME280_temperature;BME280_humidity;BME280_pressure;Samples;Min_cycle;Max_cycle;Signal;HPM_P1;HPM_P2
2024/04/16 00:01:36;;;;;;;1.75;1.15;;;;;;;;;;5662474;25;20265;-47
2024/04/16 00:04:03;;;;;;;1.40;1.30;;;;;;;;;;5675764;25;20262;-47
2024/04/16 00:06:33;;;;;;;4.40;2.15;;;;;;;;;;5675722;25;20224;-49
2024/04/16 00:08:59;;;;;;;1.30;1.30;;;;;;;;;;5675592;25;20636;-47
2024/04/16 00:11:29;;;;;;;1.13;1.05;;;;;;;;;;5675495;25;20228;-47
2024/04/16 00:13:55;;;;;;;1.65;1.55;;;;;;;;;;5671377;25;20797;-50
2024/04/16 00:16:27;;;;;;;1.40;1.17;;;;;;;;;;5679202;25;20231;-50
2024/04/16 00:18:53;;;;;;;1.45;1.20;;;;;;;;;;5679791;25;20227;-48
2024/04/16 00:21:22;;;;;;;4.15;1.25;;;;;;;;;;5674848;25;20225;-47
2024/04/16 00:23:49;;;;;;;1.67;1.58;;;;;;;;;;5669487;25;20258;-50
2024/04/16 00:26:18;;;;;;;1.00;1.00;;;;;;;;;;5679039;25;20278;-47
2024/04/16 00:28:44;;;;;;;1.15;1.15;;;;;;;;;;5664892;25;20223;-47
2024/04/16 00:31:14;;;;;;;1.40;1.30;;;;;;;;;;5678729;25;20641;-48
2024/04/16 00:33:43;;;;;;;1.58;1.23;;;;;;;;;;5678794;25;20223;-48
2024/04/16 00:36:12;;;;;;;2.25;1.00;;;;;;;;;;5678831;25;20710;-47
2024/04/16 00:38:38;;;;;;;1.20;1.15;;;;;;;;;;5679652;25;20262;-47
2024/04/16 00:41:07;;;;;;;1.75;1.65;;;;;;;;;;5678828;25;20333;-51
2024/04/16 00:43:34;;;;;;;4.32;1.40;;;;;;;;;;5672935;25;20262;-47
2024/04/16 00:46:04;;;;;;;1.63;1.20;;;;;;;;;;5678818;25;20279;-47
2024/04/16 00:48:31;;;;;;;1.30;1.17;;;;;;;;;;5678945;25;20347;-47
2024/04/16 00:51:03;;;;;;;1.10;1.10;;;;;;;;;;5678661;25;20232;-47
2024/04/16 00:53:29;;;;;;;1.38;1.23;;;;;;;;;;5663889;25;20216;-47
2024/04/16 00:56:00;;;;;;;1.27;1.17;;;;;;;;;;5678994;25;20223;-49
2024/04/16 00:58:27;;;;;;;1.35;1.15;;;;;;;;;;5664360;25;20271;-48
2024/04/16 01:00:56;;;;;;;1.30;1.20;;;;;;;;;;5678997;25;20254;-50
2024/04/16 01:03:23;;;;;;;1.48;1.38;;;;;;;;;;5678374;25;21027;-47
2024/04/16 01:05:52;;;;;;;2.00;1.48;;;;;;;;;;5678452;25;20220;-51
2024/04/16 01:08:21;;;;;;;1.98;1.25;;;;;;;;;;5678451;25;20268;-48
2024/04/16 01:10:50;;;;;;;1.13;1.08;;;;;;;;;;5678786;25;20270;-50
2024/04/16 01:13:17;;;;;;;1.15;1.05;;;;;;;;;;5672318;25;20225;-47
2024/04/16 01:15:47;;;;;;;1.20;1.10;;;;;;;;;;5678331;25;20275;-51
2024/04/16 01:18:13;;;;;;;1.27;1.17;;;;;;;;;;5678207;25;20267;-49
2024/04/16 01:20:43;;;;;;;1.55;1.25;;;;;;;;;;5678319;25;20318;-47
2024/04/16 01:23:12;;;;;;;1.45;1.20;;;;;;;;;;5676555;25;20626;-47
2024/04/16 01:25:41;;;;;;;2.83;1.30;;;;;;;;;;5677339;25;20614;-47
2024/04/16 01:28:07;;;;;;;1.15;1.10;;;;;;;;;;5678234;25;20224;-47
2024/04/16 01:30:36;;;;;;;4.38;1.50;;;;;;;;;;5678226;25;20275;-50
2024/04/16 01:33:03;;;;;;;1.30;1.20;;;;;;;;;;5678087;25;20224;-47
2024/04/16 01:35:32;;;;;;;1.77;1.35;;;;;;;;;;5677696;25;20220;-48
2024/04/16 01:37:59;;;;;;;2.88;1.15;;;;;;;;;;5678313;25;20259;-49
2024/04/16 01:40:31;;;;;;;1.08;1.00;;;;;;;;;;5677360;25;20287;-48
2024/04/16 01:42:57;;;;;;;1.42;1.10;;;;;;;;;;5673031;25;20232;-50
2024/04/16 01:45:27;;;;;;;1.58;1.13;;;;;;;;;;5677198;25;20654;-49
2024/04/16 01:47:53;;;;;;;1.67;1.10;;;;;;;;;;5677874;25;20869;-47
2024/04/16 01:50:22;;;;;;;1.45;0.98;;;;;;;;;;5677722;25;20258;-49
2024/04/16 01:52:49;;;;;;;1.20;0.98;;;;;;;;;;5677846;25;20220;-48
2024/04/16 01:55:18;;;;;;;1.55;1.20;;;;;;;;;;5677370;25;20370;-47
2024/04/16 01:57:49;;;;;;;1.02;0.98;;;;;;;;;;5677439;25;20610;-47
2024/04/16 02:00:19;;;;;;;1.05;1.05;;;;;;;;;;5677537;25;20800;-51
2024/04/16 02:02:46;;;;;;;2.03;1.13;;;;;;;;;;5677461;25;20283;-46
2024/04/16 02:05:15;;;;;;;3.33;1.23;;;;;;;;;;5677135;25;20254;-51
2024/04/16 02:07:41;;;;;;;2.10;1.50;;;;;;;;;;5677419;25;20599;-49
2024/04/16 02:10:13;;;;;;;2.38;1.50;;;;;;;;;;5677258;25;20224;-49
2024/04/16 02:12:40;;;;;;;1.45;1.00;;;;;;;;;;5677163;25;20223;-49
2024/04/16 02:15:12;;;;;;;2.20;1.17;;;;;;;;;;5671205;25;20216;-50
2024/04/16 02:17:38;;;;;;;1.35;1.23;;;;;;;;;;5677736;25;20653;-50
2024/04/16 02:20:09;;;;;;;1.77;1.48;;;;;;;;;;5677360;25;20258;-51
2024/04/16 02:22:36;;;;;;;2.05;1.30;;;;;;;;;;5677911;25;20817;-47
2024/04/16 02:25:10;;;;;;;2.80;1.63;;;;;;;;;;5677219;25;20322;-52
2024/04/16 02:27:36;;;;;;;1.20;1.10;;;;;;;;;;5664313;25;20283;-50
2024/04/16 02:30:07;;;;;;;1.42;1.20;;;;;;;;;;5677420;25;20259;-50
2024/04/16 02:32:36;;;;;;;2.90;1.75;;;;;;;;;;5663120;25;20683;-48
2024/04/16 02:35:06;;;;;;;2.17;1.50;;;;;;;;;;5676837;25;20220;-48
2024/04/16 02:37:33;;;;;;;1.63;1.52;;;;;;;;;;5675383;25;20222;-50
2024/04/16 02:40:02;;;;;;;1.55;1.45;;;;;;;;;;5677398;25;20224;-50
2024/04/16 02:42:28;;;;;;;1.77;1.20;;;;;;;;;;5676400;25;20266;-50
2024/04/16 02:44:57;;;;;;;1.13;1.13;;;;;;;;;;5670698;25;20265;-48
2024/04/16 02:47:24;;;;;;;2.92;1.35;;;;;;;;;;5677114;25;20220;-47
2024/04/16 02:49:56;;;;;;;2.05;1.00;;;;;;;;;;5677106;25;20285;-49
2024/04/16 02:52:22;;;;;;;1.42;1.30;;;;;;;;;;5676699;25;20742;-48
2024/04/16 02:54:55;;;;;;;1.80;1.70;;;;;;;;;;5676877;25;20224;-52
2024/04/16 02:57:22;;;;;;;3.30;1.30;;;;;;;;;;5676670;25;20295;-49
2024/04/16 02:59:51;;;;;;;1.45;1.25;;;;;;;;;;5676731;25;20228;-46
2024/04/16 03:02:17;;;;;;;2.95;1.35;;;;;;;;;;5676279;25;20313;-47
2024/04/16 03:04:48;;;;;;;1.30;1.20;;;;;;;;;;5676782;25;20577;-47
2024/04/16 03:07:17;;;;;;;1.20;1.15;;;;;;;;;;5664508;25;20608;-48
2024/04/16 03:09:46;;;;;;;3.13;1.35;;;;;;;;;;5676417;25;20759;-48
2024/04/16 03:12:13;;;;;;;4.03;2.00;;;;;;;;;;5675768;25;20224;-47
2024/04/16 03:14:42;;;;;;;2.10;1.50;;;;;;;;;;5675953;25;20275;-47
2024/04/16 03:17:09;;;;;;;1.35;1.17;;;;;;;;;;5675929;25;20224;-50
2024/04/16 03:19:38;;;;;;;2.95;1.20;;;;;;;;;;5676404;25;20227;-50
2024/04/16 03:22:05;;;;;;;4.70;1.63;;;;;;;;;;5675868;25;20232;-48
2024/04/16 03:24:37;;;;;;;1.92;1.38;;;;;;;;;;5660936;25;20374;-49
2024/04/16 03:27:04;;;;;;;2.33;1.20;;;;;;;;;;5676100;25;20232;-49
2024/04/16 03:29:33;;;;;;;1.40;1.20;;;;;;;;;;5676326;25;20228;-47
2024/04/16 03:31:59;;;;;;;1.48;1.15;;;;;;;;;;5675838;25;20275;-49
2024/04/16 03:34:28;;;;;;;2.85;1.40;;;;;;;;;;5675351;25;20291;-47
2024/04/16 03:36:58;;;;;;;2.25;1.63;;;;;;;;;;5675936;25;20315;-49
2024/04/16 03:39:27;;;;;;;1.10;0.98;;;;;;;;;;5674214;25;20258;-47
2024/04/16 03:41:59;;;;;;;2.10;1.67;;;;;;;;;;5675825;25;20228;-47
2024/04/16 03:44:28;;;;;;;2.53;1.13;;;;;;;;;;5675346;25;20278;-48
2024/04/16 03:46:55;;;;;;;1.60;1.13;;;;;;;;;;5675814;25;20220;-46
2024/04/16 03:49:25;;;;;;;3.30;1.40;;;;;;;;;;5674726;25;20287;-47
2024/04/16 03:51:51;;;;;;;3.60;1.30;;;;;;;;;;5675865;25;20220;-50
2024/04/16 03:54:20;;;;;;;2.33;1.65;;;;;;;;;;5675027;25;20611;-51
2024/04/16 03:56:47;;;;;;;1.83;1.70;;;;;;;;;;5675940;25;20262;-51
2024/04/16 03:59:37;;;;;;;1.90;1.13;;;;;;;;;;5675762;25;20879;-48
2024/04/16 04:02:04;;;;;;;1.50;1.30;;;;;;;;;;5675024;25;20220;-48
2024/04/16 04:04:33;;;;;;;3.17;1.40;;;;;;;;;;5675217;25;20224;-49
2024/04/16 04:07:00;;;;;;;2.60;1.17;;;;;;;;;;5675698;25;20220;-51
2024/04/16 04:09:29;;;;;;;5.05;1.23;;;;;;;;;;5674760;25;20798;-47
2024/04/16 04:11:55;;;;;;;1.77;1.42;;;;;;;;;;5675170;25;20220;-47
2024/04/16 04:14:27;;;;;;;1.92;1.10;;;;;;;;;;5674777;25;20291;-48
2024/04/16 04:16:53;;;;;;;1.25;1.15;;;;;;;;;;5675645;25;20590;-48
2024/04/16 04:19:22;;;;;;;1.52;1.15;;;;;;;;;;5675161;25;20220;-49
2024/04/16 04:21:49;;;;;;;2.10;1.05;;;;;;;;;;5675081;25;20228;-50
2024/04/16 04:24:18;;;;;;;1.17;1.10;;;;;;;;;;5674543;25;20628;-49
2024/04/16 04:26:45;;;;;;;3.92;1.10;;;;;;;;;;5675060;25;20287;-50
2024/04/16 04:29:14;;;;;;;1.55;1.10;;;;;;;;;;5674765;25;20274;-47
2024/04/16 04:31:43;;;;;;;2.53;1.17;;;;;;;;;;5674832;25;20281;-47
2024/04/16 04:34:12;;;;;;;1.35;1.08;;;;;;;;;;5674224;25;20262;-48
2024/04/16 04:36:39;;;;;;;2.00;1.00;;;;;;;;;;5675412;25;20535;-48
2024/04/16 04:39:08;;;;;;;3.15;1.50;;;;;;;;;;5673711;25;20240;-47
2024/04/16 04:41:34;;;;;;;3.03;1.42;;;;;;;;;;5674668;25;20274;-47
2024/04/16 04:44:04;;;;;;;1.88;1.10;;;;;;;;;;5667580;25;20228;-49
2024/04/16 04:46:30;;;;;;;1.42;1.33;;;;;;;;;;5674750;25;20223;-52
2024/04/16 04:49:03;;;;;;;1.33;1.05;;;;;;;;;;5674804;25;20280;-47
2024/04/16 04:51:29;;;;;;;1.30;1.20;;;;;;;;;;5674453;25;20220;-48
2024/04/16 04:53:59;;;;;;;0.85;0.85;;;;;;;;;;5674603;25;20227;-51
2024/04/16 04:56:25;;;;;;;5.13;1.40;;;;;;;;;;5675065;25;20384;-47
2024/04/16 04:58:54;;;;;;;1.10;0.98;;;;;;;;;;5659074;25;20322;-49
2024/04/16 05:01:21;;;;;;;1.45;1.35;;;;;;;;;;5660787;25;20224;-48
2024/04/16 05:03:50;;;;;;;2.10;1.50;;;;;;;;;;5678528;25;20764;-47
2024/04/16 05:06:19;;;;;;;2.03;1.20;;;;;;;;;;5678130;25;20266;-47
2024/04/16 05:08:48;;;;;;;2.13;1.35;;;;;;;;;;5677481;25;20365;-47
2024/04/16 05:11:15;;;;;;;2.42;1.00;;;;;;;;;;5677985;25;20558;-49
2024/04/16 05:13:44;;;;;;;1.88;1.20;;;;;;;;;;5674750;25;20322;-46
2024/04/16 05:16:10;;;;;;;1.63;1.05;;;;;;;;;;5678145;25;20959;-48
2024/04/16 05:18:39;;;;;;;2.60;2.20;;;;;;;;;;5678353;25;20310;-47
2024/04/16 05:21:06;;;;;;;1.45;1.33;;;;;;;;;;5677899;25;20220;-52
2024/04/16 05:23:38;;;;;;;3.67;1.23;;;;;;;;;;5678049;25;20288;-46
2024/04/16 05:26:05;;;;;;;1.42;1.33;;;;;;;;;;5678321;25;20223;-50
2024/04/16 05:28:34;;;;;;;3.35;1.40;;;;;;;;;;5662794;25;20255;-51
2024/04/16 05:31:04;;;;;;;2.67;1.10;;;;;;;;;;5678051;25;20231;-53
2024/04/16 05:33:30;;;;;;;2.30;1.20;;;;;;;;;;5677594;25;20224;-52
2024/04/16 05:35:59;;;;;;;1.45;1.20;;;;;;;;;;5678004;25;20216;-49
2024/04/16 05:38:26;;;;;;;3.85;1.20;;;;;;;;;;5676736;25;20286;-48
2024/04/16 05:40:57;;;;;;;2.13;1.42;;;;;;;;;;5677922;25;20299;-50
2024/04/16 05:43:24;;;;;;;1.58;1.10;;;;;;;;;;5674107;25;20245;-49
2024/04/16 05:45:53;;;;;;;1.92;1.40;;;;;;;;;;5677961;25;20721;-47
2024/04/16 05:48:20;;;;;;;2.95;1.20;;;;;;;;;;5677999;25;20258;-47
2024/04/16 05:50:49;;;;;;;3.90;1.20;;;;;;;;;;5678022;25;20280;-49
2024/04/16 05:53:18;;;;;;;2.50;1.25;;;;;;;;;;5676911;25;20734;-48
2024/04/16 05:55:45;;;;;;;3.03;1.50;;;;;;;;;;5677800;25;20266;-48
2024/04/16 05:58:17;;;;;;;4.32;1.67;;;;;;;;;;5677457;25;20224;-47
2024/04/16 06:00:44;;;;;;;1.50;1.30;;;;;;;;;;5677469;25;20220;-47
2024/04/16 06:03:13;;;;;;;2.38;1.23;;;;;;;;;;5677159;25;20228;-46
2024/04/16 06:05:39;;;;;;;1.65;1.20;;;;;;;;;;5677615;25;20216;-50
2024/04/16 06:08:10;;;;;;;3.47;1.25;;;;;;;;;;5676195;25;20733;-47
2024/04/16 06:10:36;;;;;;;2.53;1.20;;;;;;;;;;5663055;25;20804;-48
2024/04/16 06:13:06;;;;;;;4.30;1.38;;;;;;;;;;5673687;25;20331;-51
2024/04/16 06:15:35;;;;;;;1.65;1.52;;;;;;;;;;5661770;25;20259;-47
2024/04/16 06:18:09;;;;;;;3.17;1.10;;;;;;;;;;5677571;25;20300;-51
2024/04/16 06:20:35;;;;;;;1.20;1.10;;;;;;;;;;5677523;25;20219;-49
2024/04/16 06:23:05;;;;;;;2.15;1.10;;;;;;;;;;5677293;25;20265;-47
2024/04/16 06:25:31;;;;;;;2.95;1.38;;;;;;;;;;5677343;25;20208;-52
2024/04/16 06:28:00;;;;;;;0.98;0.98;;;;;;;;;;5677312;25;20249;-51
2024/04/16 06:30:27;;;;;;;4.10;1.20;;;;;;;;;;5677161;25;20224;-51
2024/04/16 06:32:58;;;;;;;2.10;1.30;;;;;;;;;;5677067;25;20251;-49
2024/04/16 06:35:25;;;;;;;1.73;1.63;;;;;;;;;;5677157;25;20220;-49
2024/04/16 06:37:54;;;;;;;1.92;1.25;;;;;;;;;;5675535;25;20244;-47
2024/04/16 06:40:21;;;;;;;1.67;1.25;;;;;;;;;;5677409;25;20216;-47
2024/04/16 06:42:54;;;;;;;1.48;1.05;;;;;;;;;;5668218;25;20327;-49
2024/04/16 06:45:20;;;;;;;1.10;1.00;;;;;;;;;;5673741;25;20255;-48
2024/04/16 06:47:50;;;;;;;1.55;1.27;;;;;;;;;;5676891;25;20220;-47
2024/04/16 06:50:19;;;;;;;1.23;0.90;;;;;;;;;;5676807;25;20270;-48
2024/04/16 06:52:48;;;;;;;1.40;1.10;;;;;;;;;;5676881;25;20228;-47
2024/04/16 06:55:14;;;;;;;1.00;0.93;;;;;;;;;;5658414;25;20447;-50
2024/04/16 06:57:44;;;;;;;3.70;0.95;;;;;;;;;;5663665;25;20224;-51
2024/04/16 07:00:12;;;;;;;0.80;0.80;;;;;;;;;;5677082;25;20223;-53
2024/04/16 07:02:41;;;;;;;0.70;0.70;;;;;;;;;;5676433;25;20243;-48
2024/04/16 07:05:09;;;;;;;0.70;0.70;;;;;;;;;;5676496;25;20216;-49
2024/04/16 07:07:41;;;;;;;2.00;1.10;;;;;;;;;;5675222;25;20231;-47
2024/04/16 07:10:09;;;;;;;1.25;0.85;;;;;;;;;;5676670;25;20801;-51
2024/04/16 07:12:38;;;;;;;0.70;0.70;;;;;;;;;;5676600;25;20239;-50
2024/04/16 07:15:06;;;;;;;0.90;0.90;;;;;;;;;;5656716;25;20714;-49
2024/04/16 07:17:35;;;;;;;4.53;1.10;;;;;;;;;;5661002;25;20224;-49
2024/04/16 07:20:01;;;;;;;3.42;1.30;;;;;;;;;;5676841;25;20228;-47
2024/04/16 07:22:32;;;;;;;1.02;0.95;;;;;;;;;;5676253;25;20235;-50
2024/04/16 07:25:01;;;;;;;0.85;0.85;;;;;;;;;;5675427;25;20220;-50
2024/04/16 07:27:30;;;;;;;1.55;0.98;;;;;;;;;;5676049;25;20266;-48
2024/04/16 07:29:59;;;;;;;1.25;1.00;;;;;;;;;;5676566;25;20227;-50
2024/04/16 07:32:26;;;;;;;1.00;1.00;;;;;;;;;;5675843;25;20277;-49
2024/04/16 07:34:55;;;;;;;0.77;0.77;;;;;;;;;;5664234;25;20274;-47
2024/04/16 07:37:21;;;;;;;2.58;1.05;;;;;;;;;;5667636;25;20243;-49
2024/04/16 07:39:50;;;;;;;1.10;0.98;;;;;;;;;;5664715;25;20291;-47
2024/04/16 07:42:20;;;;;;;0.70;0.70;;;;;;;;;;5659895;25;20280;-51
2024/04/16 07:44:49;;;;;;;0.90;0.80;;;;;;;;;;5674684;25;20764;-48
2024/04/16 07:47:16;;;;;;;1.95;1.25;;;;;;;;;;5675797;25;20338;-49
2024/04/16 07:49:45;;;;;;;0.85;0.82;;;;;;;;;;5666564;25;20220;-49
2024/04/16 07:52:11;;;;;;;1.73;1.05;;;;;;;;;;5670247;25;20223;-48
2024/04/16 07:54:41;;;;;;;0.90;0.90;;;;;;;;;;5675689;25;20224;-48
2024/04/16 07:57:07;;;;;;;1.02;0.85;;;;;;;;;;5675320;25;20223;-50
2024/04/16 07:59:39;;;;;;;0.88;0.80;;;;;;;;;;5644402;25;20603;-48
2024/04/16 08:02:08;;;;;;;0.68;0.60;;;;;;;;;;5675841;25;20579;-47
2024/04/16 08:04:37;;;;;;;1.25;0.90;;;;;;;;;;5660094;25;20283;-49
2024/04/16 08:07:05;;;;;;;1.33;0.80;;;;;;;;;;5659462;25;20615;-48
2024/04/16 08:09:34;;;;;;;0.80;0.80;;;;;;;;;;5675660;25;20224;-51
2024/04/16 08:12:01;;;;;;;0.65;0.65;;;;;;;;;;5675262;25;20274;-48
2024/04/16 08:14:30;;;;;;;1.15;1.00;;;;;;;;;;5670832;25;20756;-50
2024/04/16 08:16:59;;;;;;;1.90;1.00;;;;;;;;;;5675400;25;20326;-49
2024/04/16 08:19:28;;;;;;;1.17;0.90;;;;;;;;;;5675392;25;20657;-48
2024/04/16 08:21:55;;;;;;;0.60;0.60;;;;;;;;;;5675307;25;20228;-47
2024/04/16 08:24:24;;;;;;;1.10;0.98;;;;;;;;;;5658612;25;20228;-51
2024/04/16 08:26:50;;;;;;;1.38;0.90;;;;;;;;;;5675477;25;20609;-49
2024/04/16 08:29:19;;;;;;;1.42;0.80;;;;;;;;;;5672274;25;20312;-50
2024/04/16 08:31:46;;;;;;;0.60;0.60;;;;;;;;;;5662833;25;20224;-49
2024/04/16 08:34:18;;;;;;;2.20;0.80;;;;;;;;;;5674369;25;20378;-47
2024/04/16 08:36:44;;;;;;;0.95;0.85;;;;;;;;;;5679193;25;20266;-50
2024/04/16 08:39:13;;;;;;;1.58;1.20;;;;;;;;;;5677951;25;20244;-47
2024/04/16 08:41:40;;;;;;;1.00;1.00;;;;;;;;;;5678380;25;20228;-52
2024/04/16 08:44:09;;;;;;;1.83;1.25;;;;;;;;;;5677281;25;20865;-51
2024/04/16 08:46:37;;;;;;;0.70;0.70;;;;;;;;;;5663756;25;20223;-51
2024/04/16 08:49:07;;;;;;;1.40;0.90;;;;;;;;;;5679092;25;20220;-50
2024/04/16 08:51:37;;;;;;;0.93;0.75;;;;;;;;;;5678803;25;20750;-50
2024/04/16 08:54:08;;;;;;;1.75;1.10;;;;;;;;;;5678373;25;20220;-50
2024/04/16 08:56:36;;;;;;;2.35;1.17;;;;;;;;;;5678775;25;20220;-49
2024/04/16 08:59:05;;;;;;;1.98;1.08;;;;;;;;;;5678246;25;20223;-49
2024/04/16 09:01:32;;;;;;;1.45;0.98;;;;;;;;;;5678248;25;20576;-49
2024/04/16 09:04:01;;;;;;;1.90;1.15;;;;;;;;;;5678372;25;20664;-49
2024/04/16 09:06:29;;;;;;;0.73;0.73;;;;;;;;;;5662521;25;20231;-51
2024/04/16 09:09:01;;;;;;;3.08;1.35;;;;;;;;;;5676462;25;20296;-47
2024/04/16 09:11:28;;;;;;;1.38;1.13;;;;;;;;;;5673132;25;20235;-51
2024/04/16 09:13:58;;;;;;;1.00;1.00;;;;;;;;;;5663692;25;20758;-52
2024/04/16 09:16:27;;;;;;;1.13;1.00;;;;;;;;;;5678307;25;20263;-50
2024/04/16 09:19:04;;;;;;;2.63;0.90;;;;;;;;;;5678576;25;20223;-49
2024/04/16 09:21:33;;;;;;;2.00;0.90;;;;;;;;;;5678091;25;20275;-49
2024/04/16 09:24:05;;;;;;;1.45;0.90;;;;;;;;;;5678044;25;20269;-48
2024/04/16 09:26:37;;;;;;;1.00;0.90;;;;;;;;;;5678265;25;20275;-48
2024/04/16 09:29:03;;;;;;;1.20;0.90;;;;;;;;;;5678408;25;20259;-50
2024/04/16 09:31:33;;;;;;;1.10;0.90;;;;;;;;;;5662531;25;21084;-49
2024/04/16 09:34:06;;;;;;;1.25;0.90;;;;;;;;;;5661897;25;20220;-51
2024/04/16 09:36:36;;;;;;;2.15;1.00;;;;;;;;;;5678143;25;20236;-50
2024/04/16 09:39:05;;;;;;;1.23;0.80;;;;;;;;;;5676886;25;20232;-53
2024/04/16 09:41:34;;;;;;;0.80;0.80;;;;;;;;;;5677415;25;20228;-48
2024/04/16 09:44:02;;;;;;;0.70;0.70;;;;;;;;;;5673142;25;20232;-49
2024/04/16 09:46:32;;;;;;;0.60;0.60;;;;;;;;;;5676782;25;20227;-50
2024/04/16 09:49:00;;;;;;;0.90;0.70;;;;;;;;;;5677861;25;20254;-48
2024/04/16 09:51:29;;;;;;;0.68;0.68;;;;;;;;;;5677734;25;20305;-49
2024/04/16 09:53:57;;;;;;;0.40;0.40;;;;;;;;;;5661794;25;20224;-49
2024/04/16 09:56:33;;;;;;;1.48;0.82;;;;;;;;;;5677606;25;20295;-48
2024/04/16 09:59:01;;;;;;;1.20;0.70;;;;;;;;;;5678169;25;20219;-48
2024/04/16 10:01:31;;;;;;;0.57;0.57;;;;;;;;;;5677365;25;20355;-49
2024/04/16 10:03:58;;;;;;;0.40;0.40;;;;;;;;;;5677528;25;20263;-48
2024/04/16 10:06:28;;;;;;;0.85;0.85;;;;;;;;;;5678023;25;20258;-51
2024/04/16 10:08:55;;;;;;;0.82;0.65;;;;;;;;;;5678730;25;20208;-47
2024/04/16 10:11:28;;;;;;;0.63;0.63;;;;;;;;;;5678217;25;20223;-47
2024/04/16 10:13:56;;;;;;;0.60;0.60;;;;;;;;;;5678665;25;20243;-49
2024/04/16 10:16:25;;;;;;;0.70;0.70;;;;;;;;;;5678248;25;20671;-49
2024/04/16 10:18:54;;;;;;;0.57;0.57;;;;;;;;;;5678711;25;20211;-47
2024/04/16 10:21:27;;;;;;;0.88;0.70;;;;;;;;;;5677943;25;20305;-47
2024/04/16 10:24:00;;;;;;;0.50;0.50;;;;;;;;;;5678404;25;20212;-47
2024/04/16 10:26:33;;;;;;;0.60;0.60;;;;;;;;;;5678125;25;20212;-49
2024/04/16 10:29:00;;;;;;;0.75;0.60;;;;;;;;;;5678412;25;20553;-49
2024/04/16 10:31:33;;;;;;;1.02;0.70;;;;;;;;;;5678134;25;20263;-48
2024/04/16 10:34:00;;;;;;;1.10;0.90;;;;;;;;;;5678028;25;20207;-48
2024/04/16 10:36:30;;;;;;;0.73;0.50;;;;;;;;;;5678188;25;20267;-50
2024/04/16 10:38:57;;;;;;;1.10;0.70;;;;;;;;;;5677876;25;20686;-47
2024/04/16 10:41:32;;;;;;;2.75;0.80;;;;;;;;;;5677639;25;20287;-47
2024/04/16 10:43:59;;;;;;;0.60;0.60;;;;;;;;;;5677862;25;20212;-52
2024/04/16 10:46:28;;;;;;;0.50;0.50;;;;;;;;;;5677794;25;20275;-47
2024/04/16 10:48:55;;;;;;;0.80;0.80;;;;;;;;;;5677602;25;20805;-47
2024/04/16 10:51:24;;;;;;;0.65;0.65;;;;;;;;;;5677845;25;20223;-50
2024/04/16 10:53:51;;;;;;;0.57;0.57;;;;;;;;;;5677752;25;20209;-47
2024/04/16 10:56:20;;;;;;;0.50;0.50;;;;;;;;;;5677652;25;20783;-50
2024/04/16 10:58:50;;;;;;;0.93;0.70;;;;;;;;;;5675978;25;20243;-50
2024/04/16 11:01:23;;;;;;;0.52;0.52;;;;;;;;;;5677276;25;20246;-47
2024/04/16 11:03:49;;;;;;;0.47;0.47;;;;;;;;;;5677700;25;20199;-49
2024/04/16 11:06:19;;;;;;;0.70;0.70;;;;;;;;;;5677355;25;20262;-48
2024/04/16 11:08:45;;;;;;;0.55;0.55;;;;;;;;;;5677266;25;20250;-48
2024/04/16 11:11:16;;;;;;;1.20;1.10;;;;;;;;;;5677273;25;20258;-49
2024/04/16 11:13:42;;;;;;;0.77;0.65;;;;;;;;;;5677342;25;20259;-48
2024/04/16 11:16:14;;;;;;;0.45;0.45;;;;;;;;;;5677309;25;20266;-47
2024/04/16 11:18:40;;;;;;;0.20;0.20;;;;;;;;;;5677526;25;20220;-50
2024/04/16 11:21:10;;;;;;;0.50;0.50;;;;;;;;;;5677199;25;20272;-47
2024/04/16 11:23:36;;;;;;;0.65;0.40;;;;;;;;;;5677278;25;20553;-49
2024/04/16 11:26:07;;;;;;;0.43;0.40;;;;;;;;;;5677619;25;20204;-50
2024/04/16 11:28:33;;;;;;;0.40;0.40;;;;;;;;;;5638195;25;20213;-47
2024/04/16 11:31:02;;;;;;;0.50;0.50;;;;;;;;;;5638130;25;20201;-49
2024/04/16 11:33:37;;;;;;;0.47;0.47;;;;;;;;;;5638112;25;20251;-49
2024/04/16 11:36:04;;;;;;;0.47;0.47;;;;;;;;;;5638175;25;20738;-47
2024/04/16 11:38:35;;;;;;;0.50;0.50;;;;;;;;;;5638072;25;20216;-48
2024/04/16 11:41:02;;;;;;;0.52;0.40;;;;;;;;;;5638003;25;20213;-48
2024/04/16 11:43:32;;;;;;;1.95;0.60;;;;;;;;;;5637974;25;20591;-47
2024/04/16 11:45:59;;;;;;;0.38;0.38;;;;;;;;;;5638001;25;20205;-47
2024/04/16 11:48:29;;;;;;;1.45;0.85;;;;;;;;;;5637853;25;20306;-48
2024/04/16 11:50:58;;;;;;;0.50;0.50;;;;;;;;;;5637614;25;20209;-47
2024/04/16 11:53:27;;;;;;;0.40;0.40;;;;;;;;;;5637588;25;20224;-48
2024/04/16 11:55:54;;;;;;;1.45;0.40;;;;;;;;;;5637703;25;20926;-47
2024/04/16 11:58:23;;;;;;;0.40;0.40;;;;;;;;;;5637715;25;20304;-47
2024/04/16 12:00:51;;;;;;;0.40;0.40;;;;;;;;;;5637879;25;20239;-47
2024/04/16 12:03:20;;;;;;;0.52;0.52;;;;;;;;;;5637717;25;20229;-50
2024/04/16 12:05:47;;;;;;;0.30;0.30;;;;;;;;;;5637465;25;20221;-50
2024/04/16 12:08:19;;;;;;;0.30;0.30;;;;;;;;;;5637516;25;20244;-47
2024/04/16 12:10:45;;;;;;;0.45;0.45;;;;;;;;;;5643966;25;20212;-47
2024/04/16 12:13:14;;;;;;;0.40;0.40;;;;;;;;;;5645795;25;20315;-47
2024/04/16 12:15:41;;;;;;;0.47;0.47;;;;;;;;;;5645454;25;20216;-46
2024/04/16 12:18:10;;;;;;;0.25;0.25;;;;;;;;;;5645647;25;20786;-47
2024/04/16 12:20:37;;;;;;;0.50;0.50;;;;;;;;;;5645328;25;20715;-47
2024/04/16 12:23:06;;;;;;;0.70;0.70;;;;;;;;;;5645539;25;20225;-47
2024/04/16 12:25:39;;;;;;;0.60;0.60;;;;;;;;;;5645756;25;20321;-46
2024/04/16 12:28:05;;;;;;;0.73;0.73;;;;;;;;;;5645560;25;20671;-52
2024/04/16 12:30:35;;;;;;;1.00;1.00;;;;;;;;;;5645229;25;20762;-46
2024/04/16 12:33:01;;;;;;;1.48;1.38;;;;;;;;;;5645156;25;20395;-50
2024/04/16 12:35:30;;;;;;;1.52;1.42;;;;;;;;;;5645131;25;20220;-47
2024/04/16 12:37:57;;;;;;;0.80;0.80;;;;;;;;;;5645288;25;20247;-47
2024/04/16 12:40:26;;;;;;;0.57;0.57;;;;;;;;;;5645166;25;20280;-46
2024/04/16 12:42:55;;;;;;;0.60;0.60;;;;;;;;;;5645141;25;20221;-46
2024/04/16 12:45:24;;;;;;;0.57;0.57;;;;;;;;;;5645256;25;20336;-48
2024/04/16 12:47:51;;;;;;;0.52;0.52;;;;;;;;;;5645165;25;20212;-50
2024/04/16 12:50:20;;;;;;;0.60;0.60;;;;;;;;;;5644857;25;20607;-49
2024/04/16 12:52:47;;;;;;;0.70;0.70;;;;;;;;;;5645003;25;20852;-48
2024/04/16 12:55:16;;;;;;;0.60;0.60;;;;;;;;;;5644951;25;20299;-47
2024/04/16 12:57:42;;;;;;;0.60;0.60;;;;;;;;;;5645172;25;20217;-46
2024/04/16 13:00:14;;;;;;;0.50;0.50;;;;;;;;;;5644846;25;20272;-47
2024/04/16 13:02:41;;;;;;;0.50;0.50;;;;;;;;;;5644833;25;20264;-47
2024/04/16 13:05:10;;;;;;;0.98;0.98;;;;;;;;;;5644735;25;20692;-46
2024/04/16 13:07:37;;;;;;;0.60;0.60;;;;;;;;;;5644636;25;20217;-47
2024/04/16 13:10:06;;;;;;;0.50;0.50;;;;;;;;;;5644489;25;20677;-47
2024/04/16 13:12:33;;;;;;;0.90;0.90;;;;;;;;;;5644429;25;20228;-49
2024/04/16 13:15:02;;;;;;;0.73;0.73;;;;;;;;;;5644775;25;20209;-46
2024/04/16 13:17:31;;;;;;;0.70;0.70;;;;;;;;;;5644539;25;20212;-47
2024/04/16 13:20:01;;;;;;;0.50;0.50;;;;;;;;;;5644350;25;20726;-47
2024/04/16 13:22:27;;;;;;;0.85;0.50;;;;;;;;;;5639424;25;20271;-47
2024/04/16 13:24:57;;;;;;;0.73;0.73;;;;;;;;;;5639956;25;20618;-49
2024/04/16 13:27:23;;;;;;;0.70;0.70;;;;;;;;;;5639893;25;20217;-52
2024/04/16 13:29:53;;;;;;;0.80;0.80;;;;;;;;;;5639493;25;20217;-49
2024/04/16 13:32:20;;;;;;;0.95;0.95;;;;;;;;;;5639861;25;20696;-49
2024/04/16 13:34:52;;;;;;;0.90;0.90;;;;;;;;;;5636836;25;20213;-47
2024/04/16 13:37:18;;;;;;;0.60;0.60;;;;;;;;;;5639187;25;20209;-49
2024/04/16 13:39:48;;;;;;;0.70;0.70;;;;;;;;;;5639902;25;20310;-49
2024/04/16 13:42:15;;;;;;;0.60;0.60;;;;;;;;;;5639852;25;20217;-47
2024/04/16 13:44:44;;;;;;;0.70;0.70;;;;;;;;;;5639882;25;20320;-48
2024/04/16 13:47:10;;;;;;;0.80;0.80;;;;;;;;;;5640222;25;20332;-47
2024/04/16 13:49:40;;;;;;;1.45;1.05;;;;;;;;;;5639973;25;20212;-46
2024/04/16 13:52:09;;;;;;;0.60;0.60;;;;;;;;;;5639787;25;20276;-47
2024/04/16 13:54:38;;;;;;;1.20;1.15;;;;;;;;;;5639544;25;20287;-49
2024/04/16 13:57:05;;;;;;;1.00;1.00;;;;;;;;;;5639738;25;20213;-48
2024/04/16 13:59:34;;;;;;;1.10;1.10;;;;;;;;;;5639768;25;20284;-47
2024/04/16 14:02:02;;;;;;;1.10;1.10;;;;;;;;;;5639575;25;20225;-47
2024/04/16 14:04:31;;;;;;;0.90;0.90;;;;;;;;;;5639574;25;20300;-47
2024/04/16 14:06:58;;;;;;;1.67;1.58;;;;;;;;;;5639546;25;20243;-47
2024/04/16 14:09:29;;;;;;;1.30;1.20;;;;;;;;;;5639515;25;20614;-50
2024/04/16 14:11:56;;;;;;;1.50;1.25;;;;;;;;;;5652016;25;20223;-46
2024/04/16 14:14:25;;;;;;;1.67;1.58;;;;;;;;;;5678248;25;20216;-48
2024/04/16 14:16:51;;;;;;;1.50;1.40;;;;;;;;;;5678441;25;20246;-48
2024/04/16 14:19:20;;;;;;;1.48;1.38;;;;;;;;;;5678376;25;20208;-48
2024/04/16 14:21:47;;;;;;;1.70;1.60;;;;;;;;;;5678200;25;20266;-47
2024/04/16 14:24:19;;;;;;;1.90;1.80;;;;;;;;;;5678098;25;20741;-50
2024/04/16 14:26:48;;;;;;;1.48;1.38;;;;;;;;;;5678281;25;20207;-46
2024/04/16 14:29:17;;;;;;;1.25;1.25;;;;;;;;;;5677956;25;20211;-47
2024/04/16 14:31:44;;;;;;;1.52;1.42;;;;;;;;;;5677926;25;20266;-47
2024/04/16 14:34:14;;;;;;;1.65;1.55;;;;;;;;;;5677544;25;20544;-47
2024/04/16 14:36:40;;;;;;;1.60;1.50;;;;;;;;;;5678106;25;20666;-48
2024/04/16 14:39:09;;;;;;;1.50;1.40;;;;;;;;;;5677947;25;20246;-47
2024/04/16 14:41:37;;;;;;;1.60;1.50;;;;;;;;;;5677895;25;20307;-48
2024/04/16 14:44:08;;;;;;;1.33;1.30;;;;;;;;;;5677500;25;20247;-46
2024/04/16 14:46:38;;;;;;;1.30;1.20;;;;;;;;;;5677414;25;20295;-47
2024/04/16 14:49:05;;;;;;;1.25;1.15;;;;;;;;;;5677478;25;20262;-47
2024/04/16 14:51:34;;;;;;;1.35;1.35;;;;;;;;;;5677363;25;20224;-50